Time;durP1;ratioP1;P1;durP2;ratioP2;P2;SDS_P1;SDS_P2;PMS_P1;PMS_P2;Temp;Humidity;BMP_temperature;BMP_pressure;BME280_temperature;BME280_humidity;BME280_pressure;Samples;Min_cycle;Max_cycle;Signal;HPM_P1;HPM_P2
2023/12/06 00:02:10;;;;;;;71.05;31.63;;;0.70;99.90;;;;;;5064498;28;20053;-83
2023/12/06 00:04:35;;;;;;;66.95;31.38;;;0.70;99.90;;;;;;5078864;28;20040;-85
2023/12/06 00:07:01;;;;;;;74.55;34.60;;;0.70;99.90;;;;;;5063703;28;20426;-83
2023/12/06 00:09:26;;;;;;;66.07;28.92;;;0.70;99.90;;;;;;5061879;28;20071;-82
2023/12/06 00:11:52;;;;;;;70.18;32.22;;;0.70;99.90;;;;;;5045208;28;20117;-84
2023/12/06 00:14:18;;;;;;;63.45;30.30;;;0.70;99.90;;;;;;5064685;28;20025;-85
2023/12/06 00:16:43;;;;;;;72.03;33.95;;;0.70;99.90;;;;;;5059277;28;20029;-82
2023/12/06 00:19:09;;;;;;;72.93;34.05;;;0.70;99.90;;;;;;5061112;28;20206;-84
2023/12/06 00:21:35;;;;;;;69.65;33.42;;;0.70;99.90;;;;;;5064828;28;20143;-82
2023/12/06 00:24:00;;;;;;;59.65;30.33;;;0.70;99.90;;;;;;5065404;28;20029;-82
2023/12/06 00:26:26;;;;;;;64.57;30.63;;;0.70;99.90;;;;;;5045905;28;20115;-84
2023/12/06 00:28:53;;;;;;;75.45;37.58;;;0.70;99.90;;;;;;5061228;28;20032;-85
2023/12/06 00:31:19;;;;;;;78.10;38.03;;;0.60;99.90;;;;;;5044524;28;20026;-82
2023/12/06 00:33:44;;;;;;;75.63;36.65;;;0.60;99.90;;;;;;5077849;28;20036;-82
2023/12/06 00:36:10;;;;;;;74.05;36.20;;;0.60;99.90;;;;;;5079299;28;20385;-81
2023/12/06 00:38:36;;;;;;;68.32;33.78;;;0.60;99.90;;;;;;5043714;28;20026;-84
2023/12/06 00:41:01;;;;;;;63.65;31.63;;;0.60;99.90;;;;;;5061483;28;20044;-84
2023/12/06 00:43:27;;;;;;;64.28;30.88;;;0.60;99.90;;;;;;5061233;28;20078;-82
2023/12/06 00:45:54;;;;;;;56.17;27.95;;;0.60;99.90;;;;;;5064280;28;20091;-84
2023/12/06 00:48:19;;;;;;;55.95;28.23;;;0.60;99.90;;;;;;5077849;28;20028;-82
2023/12/06 00:50:45;;;;;;;63.67;32.85;;;0.70;99.90;;;;;;5076162;28;20033;-85
2023/12/06 00:53:11;;;;;;;55.65;31.08;;;0.70;99.90;;;;;;5065247;28;20112;-85
2023/12/06 00:55:36;;;;;;;58.05;29.27;;;0.70;99.90;;;;;;5064151;28;20024;-84
2023/12/06 00:58:02;;;;;;;62.65;32.22;;;0.70;99.90;;;;;;5028062;28;20031;-85
2023/12/06 01:00:28;;;;;;;64.63;33.83;;;0.70;99.90;;;;;;5045056;28;20083;-86
2023/12/06 01:02:54;;;;;;;67.07;34.42;;;0.70;99.90;;;;;;5063399;28;20037;-82
2023/12/06 01:05:19;;;;;;;63.65;34.03;;;0.70;99.90;;;;;;5063878;28;20029;-85
2023/12/06 01:07:45;;;;;;;65.35;34.47;;;0.70;99.90;;;;;;5045519;28;20546;-81
2023/12/06 01:10:11;;;;;;;60.13;31.95;;;0.70;99.90;;;;;;5078592;28;20385;-82
2023/12/06 01:12:36;;;;;;;60.67;33.10;;;0.80;99.90;;;;;;5063107;28;20044;-82
2023/12/06 01:15:03;;;;;;;61.45;34.72;;;0.80;99.90;;;;;;5057090;28;20075;-83
2023/12/06 01:17:29;;;;;;;55.38;31.67;;;0.80;99.90;;;;;;5040337;28;20120;-84
2023/12/06 01:19:54;;;;;;;56.60;31.20;;;0.80;99.90;;;;;;5062572;28;20120;-85
2023/12/06 01:22:20;;;;;;;59.13;33.42;;;0.80;99.90;;;;;;5063757;28;20025;-84
2023/12/06 01:24:47;;;;;;;59.42;32.20;;;0.80;99.90;;;;;;5044726;28;20500;-82
2023/12/06 01:27:12;;;;;;;50.75;27.75;;;0.80;99.90;;;;;;5049171;28;20029;-82
2023/12/06 01:29:38;;;;;;;57.33;31.35;;;0.80;99.90;;;;;;5043954;28;20048;-82
2023/12/06 01:32:04;;;;;;;50.75;27.42;;;0.80;99.90;;;;;;5060761;28;20497;-83
2023/12/06 01:34:30;;;;;;;53.83;29.30;;;0.90;99.90;;;;;;5060754;28;20438;-84
2023/12/06 01:36:55;;;;;;;51.58;29.73;;;0.90;99.90;;;;;;5075760;28;20067;-81
2023/12/06 01:39:21;;;;;;;60.67;32.95;;;0.90;99.90;;;;;;5075357;28;20087;-81
2023/12/06 01:41:51;;;;;;;54.22;31.05;;;0.90;99.90;;;;;;5074639;28;20440;-81
2023/12/06 01:44:17;;;;;;;56.63;31.35;;;0.90;99.90;;;;;;5041165;28;20021;-86
2023/12/06 01:46:42;;;;;;;59.78;31.50;;;0.90;99.90;;;;;;5076455;28;20152;-81
2023/12/06 01:49:11;;;;;;;57.67;32.60;;;0.90;99.90;;;;;;5059168;28;20517;-82
2023/12/06 01:51:38;;;;;;;55.05;30.48;;;0.90;99.90;;;;;;5076900;28;20029;-81
2023/12/06 01:54:04;;;;;;;54.08;29.85;;;0.90;99.90;;;;;;5062432;28;20272;-83
2023/12/06 01:56:30;;;;;;;58.13;31.67;;;1.00;99.90;;;;;;5043305;28;20611;-81
2023/12/06 01:58:55;;;;;;;56.83;31.33;;;1.00;99.90;;;;;;5076517;28;20504;-83
2023/12/06 02:01:22;;;;;;;52.75;31.05;;;1.00;99.90;;;;;;5062271;28;20135;-85
2023/12/06 02:03:49;;;;;;;51.25;28.55;;;1.00;99.90;;;;;;5062220;28;20026;-82
2023/12/06 02:06:14;;;;;;;51.20;29.35;;;1.00;99.90;;;;;;5042133;28;20045;-82
2023/12/06 02:08:43;;;;;;;54.92;30.02;;;1.00;99.90;;;;;;5037503;28;20164;-83
2023/12/06 02:11:09;;;;;;;56.85;31.50;;;1.00;99.90;;;;;;5058738;28;20049;-82
2023/12/06 02:13:36;;;;;;;54.70;29.42;;;1.00;99.90;;;;;;5062311;28;20044;-84
2023/12/06 02:16:03;;;;;;;48.53;26.05;;;1.00;99.90;;;;;;5028816;28;20033;-84
2023/12/06 02:18:29;;;;;;;41.92;23.80;;;1.10;99.90;;;;;;5073738;28;20036;-87
2023/12/06 02:20:56;;;;;;;48.60;27.65;;;1.10;99.90;;;;;;5042566;28;20075;-84
2023/12/06 02:23:25;;;;;;;43.78;24.80;;;1.10;99.90;;;;;;5075633;28;20025;-83
2023/12/06 02:25:50;;;;;;;63.17;31.90;;;1.10;99.90;;;;;;5061308;28;20067;-83
2023/12/06 02:28:16;;;;;;;56.95;30.73;;;1.20;99.90;;;;;;5054320;28;20430;-83
2023/12/06 02:30:42;;;;;;;57.38;32.03;;;1.20;99.90;;;;;;5051952;28;20512;-82
2023/12/06 02:33:07;;;;;;;55.88;29.75;;;1.20;99.90;;;;;;5042636;28;20029;-81
2023/12/06 02:35:39;;;;;;;55.13;29.50;;;1.30;99.90;;;;;;5044668;28;20409;-85
2023/12/06 02:38:05;;;;;;;50.78;27.35;;;1.30;99.90;;;;;;5042735;28;20033;-84
2023/12/06 02:40:32;;;;;;;50.53;27.58;;;1.30;99.90;;;;;;5026912;28;20048;-83
2023/12/06 02:43:01;;;;;;;50.00;27.45;;;1.30;99.90;;;;;;5042771;28;20043;-85
2023/12/06 02:45:26;;;;;;;59.03;31.25;;;1.30;99.90;;;;;;5042115;28;20033;-80
2023/12/06 02:47:52;;;;;;;62.20;33.03;;;1.40;99.90;;;;;;5076206;28;20036;-81
2023/12/06 02:50:18;;;;;;;55.30;30.55;;;1.40;99.90;;;;;;5045467;28;20082;-82
2023/12/06 02:52:43;;;;;;;55.90;31.83;;;1.40;99.90;;;;;;5061340;28;20032;-85
2023/12/06 02:55:09;;;;;;;58.30;30.33;;;1.40;99.90;;;;;;5075109;28;20036;-82
2023/12/06 02:57:35;;;;;;;53.53;29.75;;;1.50;99.90;;;;;;5060432;28;20025;-84
2023/12/06 03:00:00;;;;;;;56.85;31.00;;;1.50;99.90;;;;;;5062693;28;20074;-83
2023/12/06 03:02:26;;;;;;;54.55;31.77;;;1.50;99.90;;;;;;5044348;28;20056;-83
2023/12/06 03:04:52;;;;;;;53.90;29.38;;;1.50;99.90;;;;;;5071143;28;20056;-83
2023/12/06 03:07:17;;;;;;;51.08;29.88;;;1.50;99.90;;;;;;5042259;28;20041;-82
2023/12/06 03:09:43;;;;;;;54.72;30.90;;;1.60;99.90;;;;;;5044008;28;20497;-82
2023/12/06 03:12:09;;;;;;;56.92;31.33;;;1.60;99.90;;;;;;5074944;28;21710;-80
2023/12/06 03:14:34;;;;;;;58.05;31.40;;;1.60;99.90;;;;;;5040345;28;20021;-84
2023/12/06 03:17:00;;;;;;;51.78;29.25;;;1.60;99.90;;;;;;5061659;28;20040;-84
2023/12/06 03:19:25;;;;;;;52.58;29.42;;;1.60;99.90;;;;;;5038624;28;20029;-82
2023/12/06 03:21:51;;;;;;;52.38;28.70;;;1.60;99.90;;;;;;5042299;28;20032;-83
2023/12/06 03:24:17;;;;;;;51.28;27.20;;;1.60;99.90;;;;;;5076659;28;20060;-81
2023/12/06 03:26:42;;;;;;;41.28;23.25;;;1.70;99.90;;;;;;5076961;28;20064;-84
2023/12/06 03:29:08;;;;;;;48.38;26.27;;;1.70;99.90;;;;;;5076913;28;20036;-82
2023/12/06 03:31:34;;;;;;;50.40;28.80;;;1.70;99.90;;;;;;5040788;28;20024;-82
2023/12/06 03:33:59;;;;;;;49.15;27.92;;;1.80;99.90;;;;;;5040958;28;20035;-82
2023/12/06 03:36:25;;;;;;;55.28;29.92;;;1.70;99.90;;;;;;5039609;28;20029;-82
2023/12/06 03:38:50;;;;;;;51.90;28.08;;;1.70;99.90;;;;;;5059115;28;20037;-81
2023/12/06 03:41:16;;;;;;;52.40;28.75;;;1.70;99.90;;;;;;5060829;28;20026;-82
2023/12/06 03:43:42;;;;;;;52.17;28.50;;;1.80;99.90;;;;;;5064949;28;20044;-81
2023/12/06 03:46:08;;;;;;;54.83;30.50;;;1.80;99.90;;;;;;5080259;28;20117;-82
2023/12/06 03:48:34;;;;;;;46.70;25.45;;;1.80;99.90;;;;;;5046194;28;20052;-82
2023/12/06 03:51:00;;;;;;;50.70;27.50;;;1.80;99.90;;;;;;5049545;28;20458;-82
2023/12/06 03:53:26;;;;;;;47.90;25.48;;;1.80;99.90;;;;;;5079948;28;20112;-83
2023/12/06 03:55:51;;;;;;;51.90;29.15;;;1.80;99.90;;;;;;5076642;28;20079;-84
2023/12/06 03:58:17;;;;;;;51.75;28.85;;;1.80;99.90;;;;;;5043375;28;20052;-81
2023/12/06 04:00:43;;;;;;;54.75;29.70;;;1.90;99.90;;;;;;5079830;28;20044;-82
2023/12/06 04:03:09;;;;;;;48.65;26.70;;;1.90;99.90;;;;;;5045569;28;20041;-83
2023/12/06 04:05:35;;;;;;;52.08;26.77;;;1.90;99.90;;;;;;5045259;28;20032;-81
2023/12/06 04:08:00;;;;;;;51.38;27.92;;;1.90;99.90;;;;;;5046524;28;20048;-82
2023/12/06 04:10:26;;;;;;;52.97;28.92;;;1.90;99.90;;;;;;5079898;28;20029;-83
2023/12/06 04:12:52;;;;;;;47.75;27.90;;;1.90;99.90;;;;;;5062134;28;20472;-82
2023/12/06 04:15:17;;;;;;;51.83;27.63;;;1.90;99.90;;;;;;5077188;28;20075;-83
2023/12/06 04:17:43;;;;;;;48.55;26.70;;;1.90;99.90;;;;;;5040909;28;20080;-84
2023/12/06 04:20:09;;;;;;;50.35;27.95;;;2.00;99.90;;;;;;5060354;28;20021;-82
2023/12/06 04:22:35;;;;;;;51.83;27.40;;;2.00;99.90;;;;;;5044436;28;20025;-83
2023/12/06 04:25:01;;;;;;;43.08;24.00;;;2.00;99.90;;;;;;5046226;28;20033;-82
2023/12/06 04:27:27;;;;;;;44.30;24.52;;;2.00;99.90;;;;;;5045083;28;20017;-82
2023/12/06 04:29:53;;;;;;;45.08;25.38;;;2.00;99.90;;;;;;5046702;28;20032;-82
2023/12/06 04:32:18;;;;;;;48.00;26.10;;;2.00;99.90;;;;;;5059641;28;20028;-83
2023/12/06 04:34:55;;;;;;;43.10;25.20;;;2.00;99.90;;;;;;5077216;28;20489;-82
2023/12/06 04:37:21;;;;;;;40.47;22.60;;;2.00;99.90;;;;;;5077619;28;20025;-82
2023/12/06 04:39:47;;;;;;;39.45;22.77;;;2.10;99.90;;;;;;5078488;28;20128;-82
2023/12/06 04:42:14;;;;;;;44.50;24.48;;;2.10;99.90;;;;;;5065143;28;20124;-84
2023/12/06 04:44:40;;;;;;;44.50;23.58;;;2.10;99.90;;;;;;5046891;28;20504;-84
2023/12/06 04:47:06;;;;;;;39.50;22.50;;;2.10;99.90;;;;;;5044094;28;20037;-82
2023/12/06 04:49:31;;;;;;;46.25;24.73;;;2.10;99.90;;;;;;5062477;28;20033;-82
2023/12/06 04:51:59;;;;;;;46.60;25.58;;;2.10;99.90;;;;;;5058542;28;20033;-83
2023/12/06 04:54:25;;;;;;;41.17;23.52;;;2.10;99.90;;;;;;5077328;28;20025;-84
2023/12/06 04:56:51;;;;;;;49.25;25.38;;;2.20;99.90;;;;;;5044246;28;20082;-81
2023/12/06 04:59:17;;;;;;;42.28;23.05;;;2.20;99.90;;;;;;5059994;28;20049;-84
2023/12/06 05:01:43;;;;;;;45.72;24.88;;;2.20;99.90;;;;;;5055829;28;20037;-82
2023/12/06 05:04:09;;;;;;;48.88;29.08;;;2.20;99.90;;;;;;5061767;28;20491;-84
2023/12/06 05:06:35;;;;;;;50.50;28.88;;;2.20;99.90;;;;;;5076857;28;20047;-84
2023/12/06 05:09:01;;;;;;;52.58;29.25;;;2.20;99.90;;;;;;5060113;28;21132;-82
2023/12/06 05:11:27;;;;;;;43.17;25.08;;;2.20;99.90;;;;;;5060847;28;20079;-84
2023/12/06 05:13:52;;;;;;;51.15;28.42;;;2.30;99.90;;;;;;5059440;28;20021;-82
2023/12/06 05:16:18;;;;;;;51.65;28.52;;;2.30;99.90;;;;;;5024367;28;20030;-84
2023/12/06 05:18:44;;;;;;;43.45;24.73;;;2.30;99.90;;;;;;5074252;28;20548;-85
2023/12/06 05:21:09;;;;;;;47.80;28.23;;;2.30;99.90;;;;;;5075999;28;20108;-81
2023/12/06 05:23:35;;;;;;;45.60;26.98;;;2.30;99.90;;;;;;5061878;28;20485;-82
2023/12/06 05:26:01;;;;;;;46.97;25.45;;;2.30;99.90;;;;;;5077694;28;20498;-81
2023/12/06 05:28:27;;;;;;;46.33;25.15;;;2.30;99.90;;;;;;5044667;28;20090;-82
2023/12/06 05:30:52;;;;;;;36.95;22.27;;;2.40;99.90;;;;;;5058904;28;20052;-82
2023/12/06 05:33:18;;;;;;;48.70;27.15;;;2.30;99.90;;;;;;5061136;28;20032;-84
2023/12/06 05:35:46;;;;;;;42.50;25.67;;;2.40;99.90;;;;;;5040919;28;20092;-84
2023/12/06 05:38:11;;;;;;;42.00;24.83;;;2.40;99.90;;;;;;5044874;28;20112;-84
2023/12/06 05:40:37;;;;;;;47.17;26.35;;;2.40;99.90;;;;;;5059825;28;20113;-84
2023/12/06 05:43:03;;;;;;;39.85;24.75;;;2.40;99.90;;;;;;5063781;28;20493;-83
2023/12/06 05:45:29;;;;;;;38.35;23.65;;;2.40;99.90;;;;;;5075451;28;20039;-84
2023/12/06 05:47:55;;;;;;;38.63;23.30;;;2.40;99.90;;;;;;5062949;28;20033;-83
2023/12/06 05:50:20;;;;;;;41.25;24.95;;;2.50;99.90;;;;;;5061328;28;20022;-86
2023/12/06 05:52:46;;;;;;;41.45;25.05;;;2.50;99.90;;;;;;5058057;28;20730;-82
2023/12/06 05:55:11;;;;;;;42.53;26.30;;;2.50;99.90;;;;;;5075645;28;20072;-84
2023/12/06 05:57:37;;;;;;;42.95;26.52;;;2.50;99.90;;;;;;5044214;28;20029;-84
2023/12/06 06:00:05;;;;;;;38.50;23.90;;;2.60;99.90;;;;;;5058835;28;20123;-84
2023/12/06 06:02:36;;;;;;;35.95;23.20;;;2.50;99.90;;;;;;5074953;28;20052;-84
2023/12/06 06:05:01;;;;;;;40.42;24.08;;;2.60;99.90;;;;;;5057245;28;20809;-84
2023/12/06 06:07:27;;;;;;;42.60;25.88;;;2.60;99.90;;;;;;5073633;28;20513;-82
2023/12/06 06:09:53;;;;;;;37.65;23.60;;;2.50;99.90;;;;;;5044954;28;20021;-84
2023/12/06 06:12:18;;;;;;;41.47;25.33;;;2.60;99.90;;;;;;5042731;28;20337;-83
2023/12/06 06:14:44;;;;;;;35.30;22.67;;;2.60;99.90;;;;;;5074453;28;20074;-85
2023/12/06 06:17:09;;;;;;;32.05;21.50;;;2.60;99.90;;;;;;5040494;28;20112;-84
2023/12/06 06:19:35;;;;;;;30.58;20.27;;;2.60;99.90;;;;;;5042120;28;20398;-82
2023/12/06 06:22:01;;;;;;;33.05;19.42;;;2.60;99.90;;;;;;5043930;28;20033;-83
2023/12/06 06:24:26;;;;;;;26.00;17.42;;;2.60;99.90;;;;;;5062510;28;20025;-83
2023/12/06 06:26:52;;;;;;;26.70;16.90;;;2.60;99.90;;;;;;5039879;28;20047;-84
2023/12/06 06:29:17;;;;;;;28.75;18.92;;;2.60;99.90;;;;;;5046438;28;20029;-84
2023/12/06 06:31:43;;;;;;;27.63;17.45;;;2.60;99.90;;;;;;5043371;28;20041;-83
2023/12/06 06:34:09;;;;;;;20.40;14.13;;;2.60;99.90;;;;;;5040698;28;20469;-84
2023/12/06 06:36:36;;;;;;;25.67;16.08;;;2.60;99.90;;;;;;5042540;28;20100;-83
2023/12/06 06:39:02;;;;;;;22.48;14.40;;;2.70;99.90;;;;;;5043380;28;20025;-83
2023/12/06 06:41:27;;;;;;;20.35;13.88;;;2.70;99.90;;;;;;5062735;28;20485;-84
2023/12/06 06:43:53;;;;;;;22.33;14.15;;;2.60;99.90;;;;;;5077268;28;20029;-84
2023/12/06 06:46:19;;;;;;;22.05;14.00;;;2.60;99.90;;;;;;5043453;28;20140;-84
2023/12/06 06:48:45;;;;;;;24.65;14.25;;;2.70;99.90;;;;;;5058052;28;20040;-84
2023/12/06 06:51:10;;;;;;;17.83;12.07;;;2.70;99.90;;;;;;5027292;28;20025;-84
2023/12/06 06:53:36;;;;;;;16.60;10.88;;;2.70;99.90;;;;;;5043440;28;20457;-83
2023/12/06 06:56:02;;;;;;;16.42;10.02;;;2.70;99.90;;;;;;5075287;28;20393;-84
2023/12/06 06:58:28;;;;;;;13.10;8.98;;;2.70;99.90;;;;;;5075893;28;20025;-81
2023/12/06 07:00:54;;;;;;;15.48;9.80;;;2.70;99.90;;;;;;5075379;28;20328;-82
2023/12/06 07:03:21;;;;;;;19.02;12.82;;;2.70;99.90;;;;;;5061446;28;20032;-83
2023/12/06 07:05:46;;;;;;;15.27;10.07;;;2.70;99.90;;;;;;5071313;28;20493;-82
2023/12/06 07:08:12;;;;;;;14.55;11.00;;;2.70;99.90;;;;;;5041003;28;20021;-84
2023/12/06 07:10:38;;;;;;;17.55;11.93;;;2.80;99.90;;;;;;5043765;28;20151;-83
2023/12/06 07:13:05;;;;;;;17.95;11.82;;;2.80;99.90;;;;;;5043640;28;20068;-83
2023/12/06 07:15:30;;;;;;;18.67;12.73;;;2.80;99.90;;;;;;5043014;28;20533;-83
2023/12/06 07:17:57;;;;;;;21.60;13.40;;;2.80;99.90;;;;;;5064585;28;20056;-83
2023/12/06 07:20:24;;;;;;;20.90;13.57;;;2.90;99.90;;;;;;5064912;28;20029;-85
2023/12/06 07:22:50;;;;;;;22.75;13.73;;;2.90;99.90;;;;;;5065780;28;20679;-84
2023/12/06 07:25:16;;;;;;;21.35;14.25;;;2.90;99.90;;;;;;5063685;28;20061;-83
2023/12/06 07:27:45;;;;;;;17.88;12.55;;;2.90;99.90;;;;;;5074854;28;20076;-84
2023/12/06 07:30:13;;;;;;;18.08;12.60;;;2.90;99.90;;;;;;5077403;28;20041;-84
2023/12/06 07:32:39;;;;;;;20.88;13.75;;;2.90;99.90;;;;;;5037672;28;20065;-83
2023/12/06 07:35:05;;;;;;;16.88;11.18;;;2.90;99.90;;;;;;5074675;28;20060;-84
2023/12/06 07:37:30;;;;;;;21.77;13.75;;;3.00;99.90;;;;;;5056597;28;20040;-84
2023/12/06 07:39:56;;;;;;;22.42;14.65;;;2.90;99.90;;;;;;5019421;28;20049;-81
2023/12/06 07:42:21;;;;;;;21.08;13.23;;;2.90;99.90;;;;;;5053442;28;20078;-82
2023/12/06 07:44:47;;;;;;;20.42;13.43;;;3.00;99.90;;;;;;5068382;28;20059;-82
2023/12/06 07:47:15;;;;;;;20.35;12.88;;;3.00;99.90;;;;;;5069064;28;20139;-82
2023/12/06 07:49:41;;;;;;;18.63;11.63;;;3.00;99.90;;;;;;5060512;28;20086;-83
2023/12/06 07:52:07;;;;;;;17.98;11.55;;;3.00;99.90;;;;;;5054968;28;20090;-83
2023/12/06 07:54:33;;;;;;;14.98;10.32;;;3.00;99.90;;;;;;5028335;28;20044;-82
2023/12/06 07:56:59;;;;;;;20.48;12.90;;;3.00;99.90;;;;;;5061618;28;20047;-84
2023/12/06 07:59:24;;;;;;;18.98;12.00;;;3.00;99.90;;;;;;5060677;28;20086;-84
2023/12/06 08:01:50;;;;;;;16.58;11.45;;;3.00;99.90;;;;;;5051374;28;20041;-84
2023/12/06 08:04:16;;;;;;;19.30;11.60;;;3.10;99.90;;;;;;5053984;28;20029;-83
2023/12/06 08:06:41;;;;;;;21.38;12.75;;;3.10;99.90;;;;;;5036953;28;20045;-83
2023/12/06 08:09:12;;;;;;;21.58;14.00;;;3.10;99.90;;;;;;5055063;28;20036;-82
2023/12/06 08:11:41;;;;;;;24.20;15.48;;;3.10;99.90;;;;;;5018473;28;20025;-84
2023/12/06 08:14:07;;;;;;;26.02;15.30;;;3.10;99.90;;;;;;5073861;28;20025;-83
2023/12/06 08:16:33;;;;;;;20.08;13.88;;;3.10;99.90;;;;;;5054034;28;20021;-83
2023/12/06 08:18:58;;;;;;;20.65;13.38;;;3.20;99.90;;;;;;5075404;28;20036;-83
2023/12/06 08:21:24;;;;;;;21.33;14.18;;;3.20;99.90;;;;;;5039382;28;20034;-83
2023/12/06 08:23:50;;;;;;;21.17;14.43;;;3.20;99.90;;;;;;5035413;28;20025;-82
2023/12/06 08:26:16;;;;;;;20.30;13.65;;;3.20;99.90;;;;;;5036003;28;20044;-82
2023/12/06 08:28:42;;;;;;;16.90;11.32;;;3.20;99.90;;;;;;5051750;28;20042;-83
2023/12/06 08:31:10;;;;;;;20.67;14.77;;;3.20;99.90;;;;;;5038900;28;20033;-84
2023/12/06 08:33:36;;;;;;;21.63;14.27;;;3.20;99.90;;;;;;5055214;28;20021;-82
2023/12/06 08:36:02;;;;;;;17.55;11.43;;;3.30;99.90;;;;;;5060707;28;20025;-83
2023/12/06 08:38:28;;;;;;;24.35;13.68;;;3.30;99.90;;;;;;5071429;28;20024;-82
2023/12/06 08:40:54;;;;;;;21.52;13.40;;;3.40;99.90;;;;;;5050612;28;20036;-84
2023/12/06 08:43:19;;;;;;;21.27;15.05;;;3.40;99.90;;;;;;5069031;28;20112;-83
2023/12/06 08:45:45;;;;;;;19.67;12.43;;;3.40;99.90;;;;;;5067565;28;20051;-82
2023/12/06 08:48:11;;;;;;;24.38;15.75;;;3.40;99.90;;;;;;5037178;28;20027;-84
2023/12/06 08:50:37;;;;;;;22.73;15.80;;;3.40;99.90;;;;;;5038808;28;20037;-83
2023/12/06 08:53:03;;;;;;;22.55;15.43;;;3.40;99.90;;;;;;5054675;28;20044;-83
2023/12/06 08:55:28;;;;;;;24.60;16.08;;;3.50;99.90;;;;;;5070870;28;20037;-82
2023/12/06 08:57:54;;;;;;;18.30;12.75;;;3.50;99.90;;;;;;5052595;28;20370;-82
2023/12/06 09:00:20;;;;;;;20.77;13.20;;;3.50;99.90;;;;;;5069179;28;20044;-82
2023/12/06 09:02:45;;;;;;;22.25;15.25;;;3.50;99.90;;;;;;5069702;28;20044;-82
2023/12/06 09:05:11;;;;;;;26.05;15.23;;;3.50;99.90;;;;;;5069208;28;20037;-82
2023/12/06 09:07:40;;;;;;;23.83;16.50;;;3.50;99.90;;;;;;5060247;28;20040;-83
2023/12/06 09:10:08;;;;;;;23.02;15.48;;;3.70;99.90;;;;;;5038678;28;20044;-84
2023/12/06 09:12:33;;;;;;;24.67;16.55;;;3.70;99.90;;;;;;5037477;28;20063;-83
2023/12/06 09:14:59;;;;;;;25.67;15.80;;;3.70;99.90;;;;;;5068892;28;20049;-83
2023/12/06 09:17:25;;;;;;;22.48;13.93;;;3.80;99.90;;;;;;5042962;28;20032;-82
2023/12/06 09:19:52;;;;;;;25.55;16.40;;;3.80;99.90;;;;;;5036357;28;20021;-83
2023/12/06 09:22:20;;;;;;;25.02;17.63;;;3.80;99.90;;;;;;5058747;28;20033;-83
2023/12/06 09:24:46;;;;;;;22.25;14.93;;;3.90;99.90;;;;;;5071220;28;20060;-81
2023/12/06 09:27:12;;;;;;;27.38;17.30;;;3.90;99.90;;;;;;5071320;28;20116;-82
2023/12/06 09:29:37;;;;;;;31.65;17.95;;;3.90;99.90;;;;;;5018543;28;20124;-82
2023/12/06 09:32:04;;;;;;;26.55;16.10;;;4.00;99.90;;;;;;5059279;28;20033;-83
2023/12/06 09:34:30;;;;;;;19.98;15.50;;;3.90;99.90;;;;;;5068766;28;20053;-83
2023/12/06 09:36:56;;;;;;;21.63;13.60;;;4.00;99.90;;;;;;5067238;28;20473;-83
2023/12/06 09:39:22;;;;;;;21.02;14.30;;;4.00;99.90;;;;;;5036417;28;20505;-83
2023/12/06 09:41:48;;;;;;;19.52;14.80;;;4.00;99.90;;;;;;5034640;28;20063;-83
2023/12/06 09:44:17;;;;;;;23.10;15.38;;;4.10;99.90;;;;;;5037708;28;20052;-83
2023/12/06 09:46:44;;;;;;;25.05;13.07;;;4.00;99.90;;;;;;5019689;28;20051;-83
2023/12/06 09:49:10;;;;;;;25.55;16.38;;;4.20;99.90;;;;;;5037113;28;20493;-82
2023/12/06 09:51:36;;;;;;;20.23;14.60;;;4.20;99.90;;;;;;5041527;28;20445;-83
2023/12/06 09:54:02;;;;;;;25.63;15.13;;;4.50;99.90;;;;;;5051217;28;20323;-83
2023/12/06 09:56:27;;;;;;;20.35;12.82;;;4.50;99.90;;;;;;5045781;28;20026;-83
2023/12/06 09:58:53;;;;;;;19.35;13.13;;;4.60;99.90;;;;;;5052424;28;20045;-82
2023/12/06 10:01:19;;;;;;;20.50;12.38;;;4.70;99.90;;;;;;5026135;28;20091;-83
2023/12/06 10:03:46;;;;;;;19.77;13.88;;;4.70;99.90;;;;;;5046552;28;20026;-84
2023/12/06 10:06:12;;;;;;;22.67;14.40;;;4.70;99.90;;;;;;5072475;28;20076;-83
2023/12/06 10:08:38;;;;;;;19.10;11.88;;;4.70;99.90;;;;;;5037291;28;20056;-83
2023/12/06 10:11:08;;;;;;;24.42;14.65;;;4.70;99.90;;;;;;5070934;28;20533;-83
2023/12/06 10:13:36;;;;;;;21.13;15.13;;;4.70;99.90;;;;;;5035984;28;20133;-83
2023/12/06 10:16:11;;;;;;;20.75;13.88;;;4.70;99.90;;;;;;5069463;28;20472;-82
2023/12/06 10:18:37;;;;;;;21.08;14.82;;;4.70;99.90;;;;;;5069372;28;20112;-83
2023/12/06 10:21:03;;;;;;;21.73;13.02;;;4.70;99.90;;;;;;5070532;28;20106;-83
2023/12/06 10:23:30;;;;;;;19.73;12.82;;;4.80;99.90;;;;;;5059304;28;20025;-83
2023/12/06 10:25:56;;;;;;;16.55;12.27;;;4.80;99.90;;;;;;5069895;28;20489;-82
2023/12/06 10:28:21;;;;;;;17.77;12.65;;;4.80;99.90;;;;;;5019539;28;20045;-82
2023/12/06 10:30:58;;;;;;;20.52;14.20;;;4.80;99.90;;;;;;5050875;28;20025;-83
2023/12/06 10:33:26;;;;;;;20.30;14.52;;;4.70;99.90;;;;;;5049550;28;20441;-84
2023/12/06 10:35:53;;;;;;;19.90;13.93;;;4.80;99.90;;;;;;5068056;28;20028;-84
2023/12/06 10:38:20;;;;;;;18.55;13.95;;;4.80;99.90;;;;;;5068806;28;20037;-83
2023/12/06 10:40:47;;;;;;;20.33;15.27;;;4.80;99.90;;;;;;5058386;28;20040;-82
2023/12/06 10:43:15;;;;;;;20.33;14.38;;;4.80;99.90;;;;;;5020808;28;20374;-83
2023/12/06 10:45:42;;;;;;;19.15;13.20;;;4.80;99.90;;;;;;5037304;28;20205;-83
2023/12/06 10:48:09;;;;;;;19.13;14.20;;;4.90;99.90;;;;;;5020733;28;20124;-82
2023/12/06 10:50:35;;;;;;;20.48;14.18;;;4.90;99.90;;;;;;5066675;28;20108;-82
2023/12/06 10:53:02;;;;;;;22.50;15.32;;;4.90;99.90;;;;;;5067618;28;20551;-82
2023/12/06 10:55:32;;;;;;;22.42;15.68;;;4.90;99.90;;;;;;5068154;28;20478;-83
2023/12/06 10:58:00;;;;;;;20.88;14.18;;;4.90;99.90;;;;;;5070592;28;20047;-84
2023/12/06 11:00:26;;;;;;;20.25;13.88;;;4.90;99.90;;;;;;5035560;28;20046;-82
2023/12/06 11:02:54;;;;;;;18.88;14.35;;;5.00;99.90;;;;;;5070740;28;20025;-84
2023/12/06 11:05:21;;;;;;;20.33;13.70;;;5.10;99.90;;;;;;5050148;28;20481;-83
2023/12/06 11:08:28;;;;;;;18.10;13.38;;;5.40;99.90;;;;;;5017771;28;20040;-83
2023/12/06 11:11:12;;;;;;;21.83;13.25;;;5.60;99.90;;;;;;5031642;28;20061;-83
2023/12/06 11:14:00;;;;;;;16.52;12.38;;;5.60;99.90;;;;;;5068119;28;20090;-82
2023/12/06 11:16:47;;;;;;;19.30;12.50;;;5.40;99.90;;;;;;5048606;28;20029;-83
2023/12/06 11:19:14;;;;;;;18.75;12.68;;;5.20;99.90;;;;;;5071959;28;20055;-83
2023/12/06 11:21:40;;;;;;;20.58;14.27;;;5.00;99.90;;;;;;5035713;28;20025;-83
2023/12/06 11:24:10;;;;;;;19.88;13.45;;;5.20;99.90;;;;;;5052876;28;20033;-83
2023/12/06 11:26:36;;;;;;;19.55;13.35;;;5.50;99.90;;;;;;5067679;28;20049;-84
2023/12/06 11:29:03;;;;;;;24.10;15.23;;;5.60;99.90;;;;;;5059231;28;20041;-83
2023/12/06 11:31:37;;;;;;;21.58;14.55;;;5.60;99.90;;;;;;5048522;28;20384;-83
2023/12/06 11:34:05;;;;;;;19.02;12.25;;;5.70;99.90;;;;;;5019291;28;20653;-83
2023/12/06 11:36:30;;;;;;;18.50;13.60;;;5.90;99.90;;;;;;5069690;28;20086;-84
2023/12/06 11:38:56;;;;;;;20.13;12.85;;;5.90;99.90;;;;;;5051454;28;20040;-83
2023/12/06 11:41:22;;;;;;;19.08;14.38;;;6.00;99.90;;;;;;5035906;28;20076;-83
2023/12/06 11:43:49;;;;;;;22.35;13.40;;;5.90;99.90;;;;;;5033790;28;20033;-83
2023/12/06 11:46:15;;;;;;;18.73;12.13;;;5.90;99.90;;;;;;5065978;28;20448;-83
2023/12/06 11:48:44;;;;;;;19.02;12.07;;;5.70;99.90;;;;;;5066505;28;20036;-81
2023/12/06 11:51:21;;;;;;;16.08;11.20;;;5.80;99.90;;;;;;5068635;28;20060;-82
2023/12/06 11:53:49;;;;;;;17.00;11.02;;;5.90;99.90;;;;;;5034617;28;20060;-83
2023/12/06 11:56:23;;;;;;;17.80;11.55;;;5.90;99.90;;;;;;5041740;28;20025;-83
2023/12/06 11:58:50;;;;;;;20.20;14.00;;;6.00;99.90;;;;;;5051730;28;20045;-83
2023/12/06 12:01:17;;;;;;;15.38;12.10;;;5.90;99.90;;;;;;5034979;28;20067;-84
2023/12/06 12:03:45;;;;;;;12.35;8.45;;;5.80;99.90;;;;;;5059647;28;20362;-83
2023/12/06 12:06:12;;;;;;;14.20;10.55;;;5.80;99.90;;;;;;5034931;28;20049;-81
2023/12/06 12:08:39;;;;;;;16.27;10.55;;;5.70;99.90;;;;;;5054037;28;20079;-83
2023/12/06 12:11:07;;;;;;;13.35;9.05;;;5.60;99.90;;;;;;5061626;28;20465;-83
2023/12/06 12:13:36;;;;;;;16.70;9.00;;;5.50;99.90;;;;;;5060966;28;20173;-83
2023/12/06 12:16:02;;;;;;;11.25;7.47;;;5.60;99.90;;;;;;5044188;28;20075;-83
2023/12/06 12:18:28;;;;;;;11.27;8.32;;;5.70;99.90;;;;;;5023261;28;20028;-83
2023/12/06 12:20:55;;;;;;;14.98;10.48;;;5.80;99.90;;;;;;5020286;28;20026;-83
2023/12/06 12:23:28;;;;;;;15.70;10.18;;;6.00;99.90;;;;;;5055345;28;20021;-83
2023/12/06 12:25:54;;;;;;;15.40;9.63;;;6.20;99.90;;;;;;5059997;28;20041;-83
2023/12/06 12:28:21;;;;;;;13.13;9.20;;;6.20;99.90;;;;;;5027626;28;20486;-82
2023/12/06 12:30:54;;;;;;;14.82;9.43;;;6.10;99.90;;;;;;5073167;28;20396;-82
2023/12/06 12:33:20;;;;;;;16.25;9.32;;;6.00;99.90;;;;;;5071937;28;20122;-83
2023/12/06 12:35:46;;;;;;;14.73;10.07;;;6.00;99.90;;;;;;5054176;28;20269;-83